Time;durP1;ratioP1;P1;durP2;ratioP2;P2;SDS_P1;SDS_P2;PMS_P1;PMS_P2;Temp;Humidity;BMP_temperature;BMP_pressure;BME280_temperature;BME280_humidity;BME280_pressure;Samples;Min_cycle;Max_cycle;Signal;HPM_P1;HPM_P2
2023/05/31 00:01:51;;;;;;;;;;;;;;;15.90;100.00;97703.09;10451801;28;20186;-51
2023/05/31 00:06:50;;;;;;;65.73;22.93;;;;;;;15.94;100.00;97703.91;10457201;28;19916;-50
2023/05/31 00:11:49;;;;;;;64.95;23.58;;;;;;;15.97;100.00;97704.69;10459457;28;20505;-51
2023/05/31 00:16:48;;;;;;;60.47;21.75;;;;;;;15.96;100.00;97702.13;10459215;28;20062;-50
2023/05/31 00:21:47;;;;;;;61.83;23.00;;;;;;;15.88;100.00;97710.16;10460171;28;20026;-50
2023/05/31 00:26:46;;;;;;;76.18;22.08;;;;;;;15.76;100.00;97702.53;10459779;28;20363;-50
2023/05/31 00:31:45;;;;;;;55.90;20.83;;;;;;;15.55;100.00;97706.47;10458521;28;20614;-52
2023/05/31 00:36:44;;;;;;;;;;;;;;;15.53;100.00;97709.16;10460230;28;20119;-52
2023/05/31 00:41:43;;;;;;;64.53;21.37;;;;;;;15.54;100.00;97705.63;10458452;28;19922;-52
2023/05/31 00:46:42;;;;;;;55.03;19.58;;;;;;;15.46;100.00;97707.56;10458553;28;20050;-51
2023/05/31 00:51:41;;;;;;;43.50;18.60;;;;;;;15.46;100.00;97718.88;10455884;28;20525;-52
2023/05/31 00:56:40;;;;;;;40.00;17.27;;;;;;;15.48;100.00;97710.97;10454615;28;20070;-51
2023/05/31 01:01:40;;;;;;;31.55;15.50;;;;;;;15.48;100.00;97712.72;10454210;28;20573;-52
2023/05/31 01:06:39;;;;;;;30.95;16.33;;;;;;;15.46;100.00;97718.03;10455484;28;20459;-52
2023/05/31 01:11:51;;;;;;;30.88;15.25;;;;;;;15.51;100.00;97715.31;10454083;28;20544;-51
2023/05/31 01:17:08;;;;;;;32.10;15.90;;;;;;;15.56;100.00;97716.06;10453063;28;20149;-52
2023/05/31 01:22:33;;;;;;;30.88;15.55;;;;;;;15.36;100.00;97685.09;10453877;28;20103;-51
2023/05/31 01:27:33;;;;;;;42.58;18.40;;;;;;;15.60;100.00;97721.19;10453551;28;20056;-51
2023/05/31 01:32:33;;;;;;;40.55;19.13;;;;;;;15.63;100.00;97721.13;10453327;28;20059;-52
2023/05/31 01:37:32;;;;;;;39.10;17.20;;;;;;;15.55;100.00;97730.91;10453616;28;20469;-51
2023/05/31 01:42:31;;;;;;;49.63;18.85;;;;;;;15.54;100.00;97726.53;10452352;28;20554;-52
2023/05/31 01:47:32;;;;;;;51.55;20.52;;;;;;;15.55;100.00;97720.44;10452781;28;20067;-51
2023/05/31 01:52:32;;;;;;;49.97;19.73;;;;;;;15.55;100.00;97733.50;10451937;28;20136;-51
2023/05/31 01:57:33;;;;;;;40.75;18.00;;;;;;;15.47;100.00;97706.66;10452056;28;20068;-52
2023/05/31 02:02:33;;;;;;;31.98;14.70;;;;;;;15.61;100.00;97720.28;10449897;28;20063;-50
2023/05/31 02:07:32;;;;;;;52.05;19.02;;;;;;;15.60;100.00;97725.53;10452211;28;20062;-50
2023/05/31 02:12:31;;;;;;;43.05;19.33;;;;;;;15.49;100.00;97709.25;10451955;28;20501;-51
2023/05/31 02:17:32;;;;;;;53.70;21.60;;;;;;;15.68;100.00;97737.56;10451942;28;20464;-54
2023/05/31 02:22:31;;;;;;;29.63;14.55;;;;;;;15.66;100.00;97739.34;10451744;28;20051;-52
2023/05/31 02:27:30;;;;;;;23.55;14.02;;;;;;;15.57;100.00;97731.69;10450317;28;20106;-51
2023/05/31 02:32:31;;;;;;;26.92;14.32;;;;;;;15.37;100.00;97739.13;10450395;28;20028;-51
2023/05/31 02:37:30;;;;;;;32.67;16.70;;;;;;;15.36;100.00;97737.38;10450819;28;20119;-53
2023/05/31 02:42:29;;;;;;;39.85;20.20;;;;;;;15.37;100.00;97745.22;10450084;28;20149;-50
2023/05/31 02:47:28;;;;;;;45.35;20.33;;;;;;;15.39;100.00;97746.03;10450142;28;20441;-52
2023/05/31 02:52:27;;;;;;;49.22;22.23;;;;;;;15.44;100.00;97753.78;10452773;28;20109;-51
2023/05/31 02:57:26;;;;;;;49.85;20.95;;;;;;;15.48;100.00;97744.97;10453094;28;20087;-52
2023/05/31 03:02:25;;;;;;;47.33;20.40;;;;;;;15.50;100.00;97745.81;10452685;28;20069;-49
2023/05/31 03:07:24;;;;;;;;;;;;;;;15.46;100.00;97749.41;10453584;28;20027;-48
2023/05/31 03:12:23;;;;;;;39.00;18.40;;;;;;;15.46;100.00;97755.47;10452475;28;20015;-50
2023/05/31 03:17:22;;;;;;;;;;;;;;;15.43;100.00;97757.28;10452850;28;20037;-51
2023/05/31 03:22:22;;;;;;;34.93;17.90;;;;;;;15.47;100.00;97756.34;10452218;28;20303;-51
2023/05/31 03:51:08;;;;;;;32.17;19.83;;;;;;;15.43;100.00;97770.38;10492860;27;20515;-50
2023/05/31 03:56:07;;;;;;;34.75;20.33;;;;;;;15.61;100.00;97780.44;10486568;28;20067;-49
2023/05/31 04:01:06;;;;;;;27.92;16.75;;;;;;;15.77;100.00;97781.00;10484328;28;20063;-51
2023/05/31 04:06:05;;;;;;;27.83;16.77;;;;;;;15.71;100.00;97782.88;10483444;28;20063;-52
2023/05/31 04:11:04;;;;;;;24.83;16.00;;;;;;;16.12;100.00;97792.47;10485362;28;20074;-52
2023/05/31 04:16:03;;;;;;;19.35;13.23;;;;;;;16.54;98.35;97787.13;10480723;28;20475;-51
2023/05/31 04:21:02;;;;;;;16.45;11.70;;;;;;;16.68;97.88;97792.03;10484393;28;20074;-52
2023/05/31 04:26:01;;;;;;;17.63;13.13;;;;;;;16.97;94.83;97793.94;10483863;28;20079;-49
2023/05/31 04:31:00;;;;;;;21.42;12.55;;;;;;;17.18;94.75;97800.38;10346207;27;20091;-52
2023/05/31 04:36:00;;;;;;;18.77;12.25;;;;;;;17.30;93.58;97794.78;10359630;28;20037;-51
2023/05/31 04:41:00;;;;;;;18.30;12.45;;;;;;;17.37;92.00;97802.50;10362291;28;20858;-50
2023/05/31 04:46:00;;;;;;;22.92;12.63;;;;;;;17.29;92.38;97810.59;10361337;28;20127;-51
2023/05/31 04:50:59;;;;;;;18.50;12.38;;;;;;;17.34;91.83;97808.69;10338086;28;20401;-51
2023/05/31 04:56:04;;;;;;;16.42;12.27;;;;;;;17.32;92.24;97808.72;10332589;28;20080;-51
2023/05/31 05:01:03;;;;;;;16.25;13.10;;;;;;;17.51;92.09;97805.59;10333394;28;20076;-52
2023/05/31 05:06:13;;;;;;;18.23;13.82;;;;;;;17.70;89.66;97804.16;10332056;28;20120;-52
2023/05/31 05:11:12;;;;;;;21.00;14.32;;;;;;;17.90;89.63;97821.16;10331190;28;20480;-51
2023/05/31 05:16:11;;;;;;;18.98;13.05;;;;;;;17.93;88.39;97828.91;10332303;28;20424;-50
2023/05/31 05:21:10;;;;;;;17.30;12.85;;;;;;;18.06;89.58;97829.41;10332248;28;20067;-52
2023/05/31 05:26:10;;;;;;;16.65;13.70;;;;;;;18.31;88.59;97834.78;10331123;28;20044;-52
2023/05/31 05:31:09;;;;;;;17.23;13.00;;;;;;;18.49;86.28;97834.22;10331646;28;20075;-53
2023/05/31 05:36:08;;;;;;;16.77;13.27;;;;;;;18.63;85.60;97831.16;10331458;28;20025;-52
2023/05/31 05:41:10;;;;;;;19.08;13.43;;;;;;;18.78;85.16;97832.44;10330924;28;20138;-53
2023/05/31 05:46:09;;;;;;;17.98;14.65;;;;;;;18.89;85.69;97832.09;10330587;28;20057;-51
2023/05/31 05:51:09;;;;;;;18.27;14.27;;;;;;;18.78;84.29;97835.06;10328102;28;20124;-53
2023/05/31 05:56:08;;;;;;;18.45;14.32;;;;;;;18.74;85.04;97844.00;10328720;28;20077;-53
2023/05/31 06:01:07;;;;;;;18.38;14.35;;;;;;;18.75;85.27;97846.53;10328918;28;20061;-53
2023/05/31 06:06:06;;;;;;;19.52;14.85;;;;;;;18.83;85.15;97854.22;10321332;28;20049;-53
2023/05/31 06:11:05;;;;;;;17.73;14.10;;;;;;;19.02;84.22;97855.31;10327628;28;20508;-53
2023/05/31 06:16:05;;;;;;;21.15;14.65;;;;;;;18.89;83.90;97817.16;10329169;28;20113;-51
2023/05/31 06:21:04;;;;;;;15.05;12.02;;;;;;;19.26;83.56;97842.22;10327656;28;20567;-52
2023/05/31 06:26:03;;;;;;;14.48;10.93;;;;;;;19.32;83.12;97851.66;10328088;28;20076;-52
2023/05/31 06:31:02;;;;;;;14.07;10.93;;;;;;;19.41;82.64;97851.34;10328619;28;20083;-50
2023/05/31 06:36:02;;;;;;;13.73;10.43;;;;;;;19.68;80.75;97849.56;10327718;28;20057;-53
2023/05/31 06:41:01;;;;;;;15.88;10.77;;;;;;;19.92;78.25;97839.03;10324431;28;20540;-53
2023/05/31 06:46:00;;;;;;;12.13;10.18;;;;;;;20.26;78.31;97838.63;10330747;28;20488;-53
2023/05/31 06:50:59;;;;;;;13.27;10.48;;;;;;;20.78;76.63;97841.00;10325988;28;20119;-53
2023/05/31 06:55:58;;;;;;;15.50;10.70;;;;;;;21.11;75.75;97846.66;10328045;28;20108;-52
2023/05/31 07:00:58;;;;;;;13.00;10.43;;;;;;;21.57;74.94;97841.19;10331912;28;20152;-51
2023/05/31 07:05:57;;;;;;;10.65;9.13;;;;;;;21.81;70.97;97842.75;10328630;28;20064;-52
2023/05/31 07:10:56;;;;;;;13.80;10.38;;;;;;;21.58;68.76;97819.16;10327778;28;20033;-53
2023/05/31 07:15:54;;;;;;;12.82;10.18;;;;;;;21.42;69.98;97838.28;10328308;28;21542;-53
2023/05/31 07:20:56;;;;;;;12.88;8.98;;;;;;;21.21;69.69;97836.59;10327847;28;20032;-52
2023/05/31 07:25:57;;;;;;;10.65;8.63;;;;;;;21.40;69.92;97837.50;10328045;28;20079;-51
2023/05/31 07:30:56;;;;;;;11.57;8.13;;;;;;;21.66;70.02;97827.56;10327767;28;21597;-52
2023/05/31 07:35:58;;;;;;;9.63;7.53;;;;;;;21.64;71.22;97830.31;10327499;28;20556;-52
2023/05/31 07:40:57;;;;;;;12.70;7.25;;;;;;;21.57;68.85;97827.97;10325776;28;20539;-52
2023/05/31 07:45:59;;;;;;;8.90;5.85;;;;;;;21.37;70.82;97832.34;10328192;28;20470;-51
2023/05/31 07:50:58;;;;;;;7.10;5.18;;;;;;;21.40;71.12;97829.56;10327046;28;20128;-53
2023/05/31 07:55:57;;;;;;;7.90;5.25;;;;;;;21.59;71.33;97811.13;10327121;28;20061;-52
2023/05/31 08:00:56;;;;;;;10.02;6.30;;;;;;;21.64;67.93;97808.28;10325272;28;20037;-52
2023/05/31 08:05:55;;;;;;;7.13;5.13;;;;;;;21.93;66.56;97826.31;10326881;28;20065;-51
2023/05/31 08:10:54;;;;;;;7.57;5.90;;;;;;;22.13;66.91;97828.09;10327057;28;20052;-52
2023/05/31 08:15:53;;;;;;;12.63;6.07;;;;;;;22.26;63.94;97824.88;10321446;28;20041;-52
2023/05/31 08:20:52;;;;;;;8.70;6.05;;;;;;;22.48;65.00;97817.63;10325911;28;20078;-52
2023/05/31 08:25:53;;;;;;;5.10;4.10;;;;;;;22.67;56.55;97820.25;10331994;28;20034;-52
2023/05/31 08:30:51;;;;;;;14.63;4.55;;;;;;;22.89;55.66;97814.78;10328055;28;20116;-52
2023/05/31 08:35:52;;;;;;;5.88;4.20;;;;;;;22.99;54.49;97796.63;10330722;28;20119;-52
2023/05/31 08:40:51;;;;;;;7.10;4.43;;;;;;;22.83;54.34;97793.06;10332713;28;20112;-50
2023/05/31 08:45:50;;;;;;;8.35;4.75;;;;;;;22.85;55.25;97809.72;10329198;28;20112;-52
2023/05/31 08:50:51;;;;;;;10.65;5.25;;;;;;;22.79;55.09;97798.50;10333120;28;20064;-53
2023/05/31 08:55:51;;;;;;;7.68;4.90;;;;;;;22.74;55.10;97782.00;10332214;28;20116;-52
2023/05/31 09:00:50;;;;;;;8.55;5.03;;;;;;;23.04;57.09;97785.81;10318597;28;20121;-53
2023/05/31 09:05:49;;;;;;;9.18;5.40;;;;;;;23.30;56.08;97776.53;10327145;28;20061;-53
2023/05/31 09:10:49;;;;;;;14.52;6.95;;;;;;;23.43;57.74;97759.06;10323883;28;20125;-52
2023/05/31 09:15:55;;;;;;;8.63;5.22;;;;;;;23.64;58.23;97780.94;10327597;28;20067;-52
2023/05/31 09:20:55;;;;;;;8.40;5.90;;;;;;;23.63;59.79;97782.75;10332017;28;20076;-52
2023/05/31 09:25:54;;;;;;;10.70;5.20;;;;;;;23.64;58.57;97778.28;10325144;28;20160;-53
2023/05/31 09:31:06;;;;;;;12.20;5.28;;;;;;;23.50;58.42;97794.06;10321009;28;20634;-52
2023/05/31 09:36:06;;;;;;;9.63;4.85;;;;;;;23.14;58.70;97777.34;10330013;28;20069;-54
2023/05/31 09:41:18;;;;;;;6.28;4.03;;;;;;;22.98;58.77;97797.59;10330244;28;20105;-53
2023/05/31 09:46:20;;;;;;;9.02;3.67;;;;;;;22.33;56.33;97778.72;10330735;28;20091;-53
2023/05/31 09:51:19;;;;;;;5.53;2.58;;;;;;;21.96;56.95;97768.06;10331207;28;20064;-52
2023/05/31 09:56:21;;;;;;;7.80;3.97;;;;;;;22.06;60.51;97778.22;10329878;28;20488;-52
2023/05/31 10:01:20;;;;;;;6.55;3.75;;;;;;;21.34;65.99;97787.63;10328896;28;20217;-50
2023/05/31 10:06:19;;;;;;;9.98;4.50;;;;;;;21.08;69.27;97797.50;10329396;28;20156;-51
2023/05/31 10:11:36;;;;;;;7.82;4.93;;;;;;;20.28;71.33;97748.03;10328326;28;20056;-52
2023/05/31 10:16:48;;;;;;;8.82;5.13;;;;;;;20.44;74.18;97773.78;10325750;28;20121;-53
2023/05/31 10:21:49;;;;;;;9.90;5.55;;;;;;;20.40;74.45;97788.00;10327858;28;20122;-53
2023/05/31 10:27:24;;;;;;;8.00;5.55;;;;;;;20.23;74.87;97810.59;10325192;28;20162;-52
2023/05/31 10:32:26;;;;;;;10.23;5.75;;;;;;;19.95;76.91;97804.66;10316116;28;20168;-50
2023/05/31 10:37:25;;;;;;;11.80;7.38;;;;;;;19.99;80.30;97780.78;10328415;28;20133;-50
2023/05/31 10:42:31;;;;;;;12.52;6.28;;;;;;;19.98;81.56;97783.50;10328718;28;20072;-52
2023/05/31 10:47:40;;;;;;;12.23;6.30;;;;;;;19.79;79.88;97792.09;10327167;28;20068;-52
2023/05/31 10:52:38;;;;;;;8.03;5.20;;;;;;;19.66;80.54;97788.19;10325945;28;20128;-52
2023/05/31 10:57:37;;;;;;;9.48;6.13;;;;;;;19.38;81.76;97772.53;10327508;28;20188;-54
2023/05/31 11:02:58;;;;;;;13.07;6.93;;;;;;;19.41;83.18;97769.78;10321012;28;20037;-51
2023/05/31 11:07:57;;;;;;;11.35;7.18;;;;;;;19.34;83.61;97744.59;10324767;28;20164;-51
2023/05/31 11:13:01;;;;;;;9.70;6.65;;;;;;;19.58;84.94;97759.53;10328586;28;20065;-52
2023/05/31 11:18:00;;;;;;;9.27;6.65;;;;;;;19.62;83.68;97760.25;10328612;28;20133;-52
2023/05/31 11:23:17;;;;;;;9.88;7.07;;;;;;;19.58;83.83;97771.81;10327359;28;20052;-52
2023/05/31 11:28:17;;;;;;;12.00;6.65;;;;;;;19.60;83.04;97778.75;10328571;28;20065;-52
2023/05/31 11:33:16;;;;;;;7.28;5.70;;;;;;;19.48;83.17;97783.56;10327327;28;20528;-52
2023/05/31 11:38:15;;;;;;;13.07;6.90;;;;;;;19.68;84.79;97773.19;10327695;28;20480;-52
2023/05/31 11:43:22;;;;;;;14.10;6.10;;;;;;;19.87;83.62;97763.69;10327206;28;20801;-53
2023/05/31 11:48:37;;;;;;;12.50;7.15;;;;;;;20.16;84.00;97774.00;10327780;28;20077;-51
2023/05/31 11:53:36;;;;;;;9.73;7.18;;;;;;;20.45;83.99;97764.97;10328256;28;20811;-51
2023/05/31 11:58:35;;;;;;;10.60;7.07;;;;;;;20.83;83.60;97759.88;10328697;28;20974;-53
2023/05/31 12:03:39;;;;;;;12.57;7.78;;;;;;;21.24;82.78;97751.97;10336204;28;20494;-52
2023/05/31 12:08:38;;;;;;;6.13;5.13;;;;;;;21.70;78.75;97750.78;10335498;28;20534;-50
2023/05/31 12:13:37;;;;;;;7.60;5.40;;;;;;;22.16;76.10;97745.16;10336148;28;20073;-52
2023/05/31 12:18:36;;;;;;;8.55;5.40;;;;;;;22.60;73.80;97726.28;10334032;28;20046;-52
2023/05/31 12:23:52;;;;;;;8.05;5.15;;;;;;;23.02;72.49;97728.53;10326123;28;20154;-51
2023/05/31 12:28:51;;;;;;;8.32;5.05;;;;;;;23.43;66.26;97722.84;10329392;28;20072;-53
2023/05/31 12:33:52;;;;;;;7.93;5.32;;;;;;;23.59;63.35;97714.13;10334191;28;20045;-51
2023/05/31 12:38:56;;;;;;;6.90;5.00;;;;;;;23.85;59.46;97723.28;10333567;28;20116;-49
2023/05/31 12:43:58;;;;;;;7.53;4.97;;;;;;;24.02;60.45;97703.78;10333150;28;20076;-51
2023/05/31 12:48:57;;;;;;;7.63;5.22;;;;;;;24.22;60.85;97700.03;10333869;28;20504;-51
2023/05/31 12:54:00;;;;;;;8.50;4.85;;;;;;;24.35;62.71;97690.41;10333105;28;20568;-51
2023/05/31 12:59:00;;;;;;;6.97;5.10;;;;;;;24.37;58.41;97677.91;10332058;28;20164;-52
2023/05/31 13:03:59;;;;;;;9.05;5.32;;;;;;;24.14;58.00;97686.31;10328005;28;20073;-51
2023/05/31 13:08:58;;;;;;;7.18;4.60;;;;;;;23.94;56.60;97677.72;10332453;28;20029;-52
2023/05/31 13:13:57;;;;;;;8.05;5.32;;;;;;;24.00;60.74;97671.19;10332505;28;20404;-52
2023/05/31 13:18:57;;;;;;;6.07;4.63;;;;;;;24.47;59.55;97678.22;10330748;28;20148;-51
2023/05/31 13:23:56;;;;;;;9.02;5.03;;;;;;;24.82;54.50;97669.97;10331204;28;20120;-50
2023/05/31 13:28:57;;;;;;;8.15;5.78;;;;;;;24.77;54.03;97670.25;10331489;28;20132;-51
2023/05/31 13:33:56;;;;;;;7.03;5.10;;;;;;;24.79;54.65;97665.72;10332038;28;20717;-52
2023/05/31 13:38:55;;;;;;;8.18;5.30;;;;;;;24.94;52.93;97663.94;10328082;28;20411;-52
2023/05/31 13:43:54;;;;;;;11.38;5.38;;;;;;;24.97;51.62;97641.72;10324675;28;20123;-49
2023/05/31 13:48:53;;;;;;;7.15;4.00;;;;;;;24.96;48.11;97663.88;10327627;28;20041;-50
2023/05/31 13:53:52;;;;;;;6.82;4.93;;;;;;;24.64;48.80;97664.00;10330219;28;20484;-53
2023/05/31 13:58:52;;;;;;;11.02;6.45;;;;;;;24.94;51.65;97671.91;10330022;28;20391;-52
2023/05/31 14:03:51;;;;;;;8.82;5.30;;;;;;;25.06;49.21;97660.56;10328928;28;20068;-52
2023/05/31 14:08:50;;;;;;;8.13;4.20;;;;;;;24.97;47.10;97660.28;10330590;28;20060;-52
2023/05/31 14:13:50;;;;;;;7.32;4.00;;;;;;;24.96;46.80;97670.03;10329396;28;20061;-52
2023/05/31 14:18:49;;;;;;;7.47;4.82;;;;;;;24.88;52.10;97681.13;10329645;28;20057;-52
2023/05/31 14:23:48;;;;;;;9.25;4.85;;;;;;;24.85;53.71;97683.94;10329173;28;20104;-53
2023/05/31 14:28:47;;;;;;;6.55;4.60;;;;;;;24.74;54.99;97670.44;10328601;28;20060;-53
2023/05/31 14:33:46;;;;;;;8.57;5.30;;;;;;;24.90;55.28;97689.00;10329431;28;20123;-54
2023/05/31 14:38:45;;;;;;;7.85;4.85;;;;;;;24.99;56.31;97692.88;10325435;28;20026;-51
2023/05/31 14:43:46;;;;;;;8.82;4.90;;;;;;;24.98;55.58;97688.53;10327290;28;20041;-52
2023/05/31 14:48:45;;;;;;;8.20;5.00;;;;;;;24.81;53.56;97708.94;10326180;28;20148;-52
2023/05/31 14:53:44;;;;;;;6.53;4.20;;;;;;;24.57;54.87;97710.41;10323242;28;20045;-53
2023/05/31 14:58:45;;;;;;;7.53;4.60;;;;;;;24.57;53.03;97713.06;10325046;28;20021;-52
2023/05/31 15:03:44;;;;;;;11.68;5.22;;;;;;;24.49;53.35;97703.72;10326264;28;20484;-53
2023/05/31 15:08:43;;;;;;;8.05;5.10;;;;;;;24.35;53.15;97706.31;10325629;28;20467;-51
2023/05/31 15:13:42;;;;;;;7.88;5.93;;;;;;;23.77;50.97;97698.97;10326386;28;20400;-54
2023/05/31 15:18:41;;;;;;;9.82;6.22;;;;;;;23.27;49.71;97690.16;10324751;28;20120;-53
2023/05/31 15:23:40;;;;;;;7.85;5.97;;;;;;;23.10;50.59;97691.06;10325691;28;20048;-52
2023/05/31 15:28:38;;;;;;;11.65;6.22;;;;;;;23.00;50.28;97687.22;10323903;28;20112;-53
2023/05/31 15:33:38;;;;;;;10.23;6.30;;;;;;;22.82;49.81;97693.47;10323488;28;20112;-52
2023/05/31 15:38:37;;;;;;;8.15;5.88;;;;;;;22.76;49.70;97716.66;10323956;28;20128;-52
2023/05/31 15:43:36;;;;;;;9.30;5.93;;;;;;;22.79;50.16;97736.81;10320878;28;20079;-52
2023/05/31 15:48:35;;;;;;;10.05;6.95;;;;;;;22.97;50.78;97751.72;10314632;28;20168;-54
2023/05/31 15:53:34;;;;;;;10.35;5.93;;;;;;;22.51;49.87;97753.16;10318925;28;20037;-52
2023/05/31 15:58:33;;;;;;;8.75;6.22;;;;;;;22.45;51.32;97751.66;10318225;28;20539;-51
2023/05/31 16:03:31;;;;;;;9.55;6.70;;;;;;;22.32;53.20;97754.06;10322853;28;20507;-52
2023/05/31 16:08:30;;;;;;;12.85;6.95;;;;;;;22.10;53.27;97748.09;10321808;28;20025;-52
2023/05/31 16:13:29;;;;;;;10.68;7.00;;;;;;;21.61;55.41;97760.91;10312343;28;20113;-52
2023/05/31 16:18:28;;;;;;;9.07;6.07;;;;;;;21.08;56.59;97744.72;10323761;28;20022;-53
2023/05/31 16:23:27;;;;;;;8.02;5.63;;;;;;;21.14;57.09;97762.06;10324124;28;20567;-54
2023/05/31 16:28:26;;;;;;;9.57;6.13;;;;;;;20.77;59.25;97760.13;10323661;28;20457;-53
2023/05/31 16:33:25;;;;;;;10.73;6.50;;;;;;;20.87;60.19;97787.88;10324532;28;20427;-52
2023/05/31 16:38:24;;;;;;;11.38;7.05;;;;;;;21.02;61.02;97784.56;10323355;28;20121;-55
2023/05/31 16:43:23;;;;;;;12.07;6.88;;;;;;;21.13;62.16;97784.97;10323290;28;20040;-52
2023/05/31 16:48:22;;;;;;;11.68;7.03;;;;;;;21.14;63.98;97783.16;10330143;28;20037;-53
2023/05/31 16:53:22;;;;;;;11.07;6.72;;;;;;;21.06;64.37;97780.03;10330434;28;20030;-53
2023/05/31 16:58:21;;;;;;;9.88;6.88;;;;;;;20.95;65.69;97776.97;10329897;28;20120;-53
2023/05/31 17:03:20;;;;;;;13.50;7.30;;;;;;;20.87;66.37;97774.69;10329938;28;20052;-52
2023/05/31 17:08:21;;;;;;;12.63;7.35;;;;;;;20.75;67.19;97767.25;10328562;28;20029;-52
2023/05/31 17:13:20;;;;;;;11.55;8.18;;;;;;;20.68;68.90;97761.38;10330324;28;20465;-52
2023/05/31 17:18:19;;;;;;;10.90;7.72;;;;;;;19.85;72.70;97762.03;10329577;28;20397;-51
2023/05/31 17:23:18;;;;;;;21.67;9.88;;;;;;;19.49;75.94;97761.63;10330286;28;20119;-52
2023/05/31 17:28:17;;;;;;;13.32;7.82;;;;;;;18.88;78.73;97776.03;10328893;28;20030;-53
2023/05/31 17:33:16;;;;;;;13.18;7.65;;;;;;;18.86;78.39;97759.44;10328982;28;20076;-52
2023/05/31 17:38:16;;;;;;;13.48;8.18;;;;;;;18.94;78.95;97764.44;10329459;28;20148;-52
2023/05/31 17:43:15;;;;;;;17.75;11.73;;;;;;;18.77;80.51;97788.66;10332523;28;20093;-52
2023/05/31 17:48:14;;;;;;;14.60;10.38;;;;;;;18.59;80.53;97772.53;10331064;28;20435;-52
2023/05/31 17:53:13;;;;;;;13.77;8.32;;;;;;;18.68;80.07;97794.19;10331012;28;20091;-51
2023/05/31 17:58:13;;;;;;;13.43;8.52;;;;;;;18.67;79.75;97795.97;10330483;28;20033;-52
2023/05/31 18:03:12;;;;;;;13.95;10.07;;;;;;;18.70;79.23;97790.63;10328412;28;20080;-52
2023/05/31 18:08:11;;;;;;;13.38;9.27;;;;;;;18.73;79.78;97797.56;10330456;28;20049;-52
2023/05/31 18:13:10;;;;;;;14.70;9.85;;;;;;;18.57;80.24;97784.91;10330496;28;20025;-53
2023/05/31 18:18:10;;;;;;;17.33;8.82;;;;;;;18.33;79.39;97754.16;10330003;28;20040;-52
2023/05/31 18:23:09;;;;;;;12.82;8.40;;;;;;;18.43;80.68;97810.75;10330498;28;20812;-53
2023/05/31 18:28:08;;;;;;;13.80;9.60;;;;;;;18.30;82.32;97826.03;10330788;28;20410;-52
2023/05/31 18:33:06;;;;;;;14.27;9.32;;;;;;;18.26;82.54;97826.19;10328657;28;20082;-53
2023/05/31 18:38:06;;;;;;;13.40;8.60;;;;;;;18.25;82.48;97824.47;10328112;28;20484;-53
2023/05/31 18:43:05;;;;;;;13.02;8.57;;;;;;;18.28;82.43;97827.84;10324579;28;20132;-53
2023/05/31 18:48:06;;;;;;;15.88;9.35;;;;;;;18.33;82.79;97838.22;10324496;28;20127;-52
2023/05/31 18:53:05;;;;;;;12.90;9.48;;;;;;;18.24;82.47;97834.09;10324250;28;20133;-52
2023/05/31 18:58:04;;;;;;;12.45;9.93;;;;;;;18.24;82.82;97854.25;10324209;28;20029;-53
2023/05/31 19:03:03;;;;;;;15.57;9.68;;;;;;;18.19;82.80;97857.03;10325276;28;20128;-52
2023/05/31 19:08:02;;;;;;;13.68;9.07;;;;;;;18.15;82.49;97863.28;10324326;28;20447;-52
2023/05/31 19:13:01;;;;;;;26.17;10.95;;;;;;;18.05;82.73;97861.84;10324953;28;20112;-53
2023/05/31 19:18:00;;;;;;;17.50;9.60;;;;;;;17.60;86.07;97872.72;10324453;28;20105;-51
2023/05/31 19:22:59;;;;;;;12.57;8.45;;;;;;;17.09;89.46;97888.00;10324401;28;20068;-53
2023/05/31 19:27:58;;;;;;;17.65;8.65;;;;;;;16.98;89.82;97890.03;10324145;28;20144;-53
2023/05/31 19:32:57;;;;;;;19.63;10.15;;;;;;;16.93;89.54;97898.03;10325218;28;20083;-50
2023/05/31 19:37:56;;;;;;;17.05;9.55;;;;;;;16.85;89.82;97915.66;10324598;28;20039;-52
2023/05/31 19:42:56;;;;;;;16.58;9.50;;;;;;;16.84;90.31;97903.47;10324193;28;20044;-52
2023/05/31 19:47:55;;;;;;;13.55;9.07;;;;;;;16.85;90.53;97905.19;10324511;28;20072;-52
2023/05/31 19:52:54;;;;;;;14.82;9.07;;;;;;;16.89;90.04;97906.00;10323369;28;20040;-52
2023/05/31 19:57:53;;;;;;;16.20;9.63;;;;;;;16.50;89.72;97825.63;10321477;28;20128;-52
2023/05/31 20:02:52;;;;;;;15.48;9.57;;;;;;;16.98;89.59;97900.53;10324087;28;20535;-52
2023/05/31 20:07:51;;;;;;;14.18;9.40;;;;;;;17.00;89.53;97903.09;10323939;28;20523;-52
2023/05/31 20:12:51;;;;;;;17.17;10.35;;;;;;;16.88;90.20;97899.00;10324763;28;20041;-52
2023/05/31 20:17:50;;;;;;;18.83;10.07;;;;;;;16.83;89.90;97895.66;10321105;28;20085;-51
2023/05/31 20:22:49;;;;;;;12.25;8.55;;;;;;;16.67;89.70;97910.81;10329241;28;20052;-51
2023/05/31 20:27:48;;;;;;;15.50;8.35;;;;;;;16.56;89.44;97908.47;10331863;28;20076;-51
2023/05/31 20:32:47;;;;;;;13.65;9.73;;;;;;;16.45;89.36;97898.22;10327084;28;20031;-52
2023/05/31 20:37:46;;;;;;;17.55;10.00;;;;;;;16.48;89.47;97905.16;10329717;28;20026;-52
2023/05/31 20:42:45;;;;;;;13.05;9.65;;;;;;;16.09;89.29;97835.31;10333497;28;20068;-51
2023/05/31 20:47:44;;;;;;;14.57;9.95;;;;;;;16.49;89.26;97894.63;10334728;28;20107;-52
2023/05/31 20:52:43;;;;;;;16.77;9.35;;;;;;;16.45;89.28;97885.13;10333677;28;20027;-51
2023/05/31 20:57:42;;;;;;;13.82;9.82;;;;;;;16.53;89.26;97908.50;10333857;28;20033;-51
2023/05/31 21:02:41;;;;;;;13.77;9.02;;;;;;;16.54;89.25;97897.16;10334366;28;20029;-52
2023/05/31 21:07:40;;;;;;;13.98;8.60;;;;;;;16.51;89.12;97897.19;10331981;28;20112;-51
2023/05/31 21:12:39;;;;;;;13.60;9.80;;;;;;;16.49;89.13;97892.03;10333494;28;20108;-52
2023/05/31 21:17:38;;;;;;;15.73;10.55;;;;;;;16.43;89.00;97888.66;10333633;28;20033;-49
2023/05/31 21:22:37;;;;;;;17.00;11.13;;;;;;;16.39;88.97;97889.63;10333200;28;20124;-51
2023/05/31 21:27:36;;;;;;;15.32;10.95;;;;;;;16.31;88.98;97892.44;10332607;28;20041;-52
2023/05/31 21:32:35;;;;;;;13.98;11.35;;;;;;;16.18;89.18;97881.34;10332743;28;20021;-52
2023/05/31 21:37:34;;;;;;;18.60;11.82;;;;;;;16.07;89.65;97878.13;10332211;28;20536;-50
2023/05/31 21:42:33;;;;;;;18.42;10.85;;;;;;;15.86;90.06;97869.81;10329364;28;21188;-52
2023/05/31 21:47:32;;;;;;;17.95;10.63;;;;;;;15.78;91.09;97882.13;10328895;28;20131;-50
2023/05/31 21:52:31;;;;;;;15.52;11.02;;;;;;;15.71;90.64;97884.91;10329038;28;20087;-51
2023/05/31 21:57:30;;;;;;;17.17;10.88;;;;;;;15.63;90.76;97885.91;10328497;28;20073;-51
2023/05/31 22:02:29;;;;;;;17.52;12.18;;;;;;;15.29;90.85;97841.22;10328470;28;20084;-52
2023/05/31 22:07:28;;;;;;;16.15;11.35;;;;;;;15.41;91.13;97866.28;10326743;28;20037;-51
2023/05/31 22:12:27;;;;;;;18.23;11.90;;;;;;;15.36;91.06;97870.75;10324867;28;20310;-50
2023/05/31 22:17:27;;;;;;;15.27;11.57;;;;;;;15.28;91.47;97877.88;10323348;28;20045;-51
2023/05/31 22:22:27;;;;;;;17.63;11.90;;;;;;;15.21;91.47;97877.97;10322298;28;20172;-51
2023/05/31 22:27:26;;;;;;;15.82;12.13;;;;;;;15.03;92.49;97866.06;10323212;28;20139;-52
2023/05/31 22:32:25;;;;;;;15.85;12.32;;;;;;;14.99;92.56;97869.66;10327320;28;20025;-51
2023/05/31 22:37:24;;;;;;;;;;;;;;;14.94;92.91;97876.69;10326885;28;20048;-52
2023/05/31 22:42:23;;;;;;;18.13;12.23;;;;;;;14.80;93.07;97865.59;10324429;28;19932;-52
2023/05/31 22:47:22;;;;;;;;;;;;;;;14.80;93.63;97869.09;10326482;28;20124;-50
2023/05/31 22:52:21;;;;;;;26.95;14.45;;;;;;;14.75;93.50;97860.44;10326473;28;19960;-51
2023/05/31 22:57:19;;;;;;;;;;;;;;;14.68;93.67;97866.63;10326344;28;20040;-52
2023/05/31 23:02:18;;;;;;;19.45;12.68;;;;;;;14.57;93.61;97853.75;10326554;28;20164;-51
2023/05/31 23:07:17;;;;;;;;;;;;;;;14.52;94.13;97860.78;10326258;28;20037;-51
2023/05/31 23:12:17;;;;;;;20.63;13.73;;;;;;;14.50;94.52;97865.16;10325798;28;19951;-52
2023/05/31 23:17:16;;;;;;;29.08;16.73;;;;;;;14.41;95.04;97866.16;10326405;28;20105;-52
2023/05/31 23:22:16;;;;;;;;;;;;;;;14.32;95.83;97861.06;10326037;28;20048;-52